sensor_id;sensor_type;location;lat;lon;timestamp;pressure;altitude;pressure_sealevel;temperature;humidity
61478;BME280;47345;52.334;10.392;2023-06-14T00:01:10;100980.66;;;15.73;50.98
61478;BME280;47345;52.334;10.392;2023-06-14T00:03:43;100982.63;;;15.70;51.07
61478;BME280;47345;52.334;10.392;2023-06-14T00:06:13;100979.52;;;15.68;51.20
61478;BME280;47345;52.334;10.392;2023-06-14T00:08:45;100981.11;;;15.65;51.21
61478;BME280;47345;52.334;10.392;2023-06-14T00:11:15;100985.21;;;15.64;51.31
61478;BME280;47345;52.334;10.392;2023-06-14T00:13:46;100988.35;;;15.61;51.46
61478;BME280;47345;52.334;10.392;2023-06-14T00:16:17;100987.36;;;15.59;51.57
61478;BME280;47345;52.334;10.392;2023-06-14T00:18:49;100984.04;;;15.57;51.64
61478;BME280;47345;52.334;10.392;2023-06-14T00:21:21;100986.45;;;15.55;51.73
61478;BME280;47345;52.334;10.392;2023-06-14T00:23:52;100985.84;;;15.50;51.83
61478;BME280;47345;52.334;10.392;2023-06-14T00:26:23;100989.84;;;15.49;51.94
61478;BME280;47345;52.334;10.392;2023-06-14T00:28:55;100989.35;;;15.45;52.04
61478;BME280;47345;52.334;10.392;2023-06-14T00:31:27;100989.21;;;15.42;52.17
61478;BME280;47345;52.334;10.392;2023-06-14T00:33:58;100987.92;;;15.40;52.18
61478;BME280;47345;52.334;10.392;2023-06-14T00:36:29;100987.92;;;15.38;52.25
61478;BME280;47345;52.334;10.392;2023-06-14T00:39:00;100989.24;;;15.35;52.27
61478;BME280;47345;52.334;10.392;2023-06-14T00:41:31;100990.40;;;15.34;52.45
61478;BME280;47345;52.334;10.392;2023-06-14T00:44:02;100986.14;;;15.32;52.52
61478;BME280;47345;52.334;10.392;2023-06-14T00:46:32;100990.83;;;15.28;52.61
61478;BME280;47345;52.334;10.392;2023-06-14T00:49:04;100991.05;;;15.26;52.72
61478;BME280;47345;52.334;10.392;2023-06-14T00:51:36;100991.50;;;15.25;52.78
61478;BME280;47345;52.334;10.392;2023-06-14T00:54:07;100995.77;;;15.23;52.93
61478;BME280;47345;52.334;10.392;2023-06-14T00:56:38;100993.88;;;15.21;52.90
61478;BME280;47345;52.334;10.392;2023-06-14T00:59:10;100991.27;;;15.20;52.97
61478;BME280;47345;52.334;10.392;2023-06-14T01:01:41;100989.67;;;15.18;53.12
61478;BME280;47345;52.334;10.392;2023-06-14T01:04:12;100994.64;;;15.15;53.19
61478;BME280;47345;52.334;10.392;2023-06-14T01:06:48;100997.30;;;15.12;53.30
61478;BME280;47345;52.334;10.392;2023-06-14T01:09:30;100994.52;;;15.07;53.44
61478;BME280;47345;52.334;10.392;2023-06-14T01:12:13;100990.60;;;15.02;53.58
61478;BME280;47345;52.334;10.392;2023-06-14T01:14:46;100994.28;;;14.99;53.75
61478;BME280;47345;52.334;10.392;2023-06-14T01:17:18;100998.80;;;14.93;53.90
61478;BME280;47345;52.334;10.392;2023-06-14T01:19:52;100999.06;;;14.88;54.12
61478;BME280;47345;52.334;10.392;2023-06-14T01:22:27;100997.58;;;14.85;54.19
61478;BME280;47345;52.334;10.392;2023-06-14T01:24:58;100997.39;;;14.84;54.19
61478;BME280;47345;52.334;10.392;2023-06-14T01:27:29;100999.61;;;14.83;54.38
61478;BME280;47345;52.334;10.392;2023-06-14T01:30:02;101001.94;;;14.79;54.38
61478;BME280;47345;52.334;10.392;2023-06-14T01:32:34;101001.59;;;14.75;54.54
61478;BME280;47345;52.334;10.392;2023-06-14T01:35:07;101003.58;;;14.72;54.69
61478;BME280;47345;52.334;10.392;2023-06-14T01:37:39;101006.78;;;14.70;54.84
61478;BME280;47345;52.334;10.392;2023-06-14T01:40:12;101005.33;;;14.68;54.99
61478;BME280;47345;52.334;10.392;2023-06-14T01:42:47;101003.83;;;14.65;55.08
61478;BME280;47345;52.334;10.392;2023-06-14T01:45:20;101003.85;;;14.58;55.22
61478;BME280;47345;52.334;10.392;2023-06-14T01:47:56;100999.27;;;14.46;55.76
61478;BME280;47345;52.334;10.392;2023-06-14T01:50:31;101003.66;;;14.38;55.96
61478;BME280;47345;52.334;10.392;2023-06-14T01:53:02;101008.09;;;14.33;56.25
61478;BME280;47345;52.334;10.392;2023-06-14T01:55:32;101007.02;;;14.29;56.34
61478;BME280;47345;52.334;10.392;2023-06-14T01:58:06;101004.94;;;14.27;56.47
61478;BME280;47345;52.334;10.392;2023-06-14T02:00:37;101007.53;;;14.25;56.47
61478;BME280;47345;52.334;10.392;2023-06-14T02:03:08;101007.40;;;14.20;56.64
61478;BME280;47345;52.334;10.392;2023-06-14T02:05:41;101008.67;;;14.14;56.76
61478;BME280;47345;52.334;10.392;2023-06-14T02:08:11;101014.70;;;14.07;56.95
61478;BME280;47345;52.334;10.392;2023-06-14T02:10:42;101017.92;;;14.01;57.29
61478;BME280;47345;52.334;10.392;2023-06-14T02:13:13;101019.10;;;13.95;57.48
61478;BME280;47345;52.334;10.392;2023-06-14T02:15:44;101014.71;;;13.89;57.62
61478;BME280;47345;52.334;10.392;2023-06-14T02:18:15;101012.71;;;13.83;57.93
61478;BME280;47345;52.334;10.392;2023-06-14T02:20:46;101014.77;;;13.77;58.13
61478;BME280;47345;52.334;10.392;2023-06-14T02:23:16;101011.24;;;13.71;58.27
61478;BME280;47345;52.334;10.392;2023-06-14T02:25:47;101013.34;;;13.63;58.53
61478;BME280;47345;52.334;10.392;2023-06-14T02:28:19;101010.27;;;13.57;58.83
61478;BME280;47345;52.334;10.392;2023-06-14T02:30:49;101011.06;;;13.53;59.03
61478;BME280;47345;52.334;10.392;2023-06-14T02:33:21;101014.84;;;13.49;59.15
61478;BME280;47345;52.334;10.392;2023-06-14T02:35:51;101013.35;;;13.46;59.26
61478;BME280;47345;52.334;10.392;2023-06-14T02:38:23;101012.98;;;13.41;59.43
61478;BME280;47345;52.334;10.392;2023-06-14T02:40:54;101016.91;;;13.36;59.56
61478;BME280;47345;52.334;10.392;2023-06-14T02:43:25;101014.41;;;13.30;59.64
61478;BME280;47345;52.334;10.392;2023-06-14T02:45:55;101016.36;;;13.26;59.93
61478;BME280;47345;52.334;10.392;2023-06-14T02:48:27;101016.65;;;13.22;60.19
61478;BME280;47345;52.334;10.392;2023-06-14T02:50:58;101019.20;;;13.19;60.47
61478;BME280;47345;52.334;10.392;2023-06-14T02:53:29;101019.46;;;13.18;60.59
61478;BME280;47345;52.334;10.392;2023-06-14T02:56:00;101019.88;;;13.18;60.73
61478;BME280;47345;52.334;10.392;2023-06-14T02:58:33;101022.55;;;13.17;60.88
61478;BME280;47345;52.334;10.392;2023-06-14T03:01:05;101028.98;;;13.18;61.08
61478;BME280;47345;52.334;10.392;2023-06-14T03:03:37;101029.39;;;13.19;61.14
61478;BME280;47345;52.334;10.392;2023-06-14T03:06:08;101036.69;;;13.22;61.18
61478;BME280;47345;52.334;10.392;2023-06-14T03:08:42;101040.61;;;13.24;61.07
61478;BME280;47345;52.334;10.392;2023-06-14T03:11:13;101040.52;;;13.24;61.05
61478;BME280;47345;52.334;10.392;2023-06-14T03:13:44;101043.96;;;13.26;61.10
61478;BME280;47345;52.334;10.392;2023-06-14T03:16:16;101045.23;;;13.27;61.20
61478;BME280;47345;52.334;10.392;2023-06-14T03:18:49;101053.29;;;13.30;61.17
61478;BME280;47345;52.334;10.392;2023-06-14T03:21:20;101052.73;;;13.33;61.17
61478;BME280;47345;52.334;10.392;2023-06-14T03:23:51;101057.15;;;13.37;61.22
61478;BME280;47345;52.334;10.392;2023-06-14T03:26:22;101059.52;;;13.52;60.96
61478;BME280;47345;52.334;10.392;2023-06-14T03:28:54;101061.95;;;13.79;60.80
61478;BME280;47345;52.334;10.392;2023-06-14T03:31:25;101063.80;;;14.27;60.12
61478;BME280;47345;52.334;10.392;2023-06-14T03:33:57;101067.13;;;14.78;59.10
61478;BME280;47345;52.334;10.392;2023-06-14T03:36:29;101069.19;;;15.26;58.04
61478;BME280;47345;52.334;10.392;2023-06-14T03:39:00;101076.23;;;15.73;56.82
61478;BME280;47345;52.334;10.392;2023-06-14T03:41:30;101077.59;;;16.15;55.83
61478;BME280;47345;52.334;10.392;2023-06-14T03:44:02;101078.30;;;16.58;54.82
61478;BME280;47345;52.334;10.392;2023-06-14T03:46:32;101078.98;;;16.99;53.85
61478;BME280;47345;52.334;10.392;2023-06-14T03:49:04;101080.86;;;17.37;52.74
61478;BME280;47345;52.334;10.392;2023-06-14T03:51:35;101081.09;;;17.74;51.97
61478;BME280;47345;52.334;10.392;2023-06-14T03:54:05;101089.08;;;18.10;51.13
61478;BME280;47345;52.334;10.392;2023-06-14T03:56:56;101088.40;;;18.49;50.31
61478;BME280;47345;52.334;10.392;2023-06-14T03:59:27;101089.08;;;18.82;49.55
61478;BME280;47345;52.334;10.392;2023-06-14T04:01:58;101091.01;;;19.15;48.75
61478;BME280;47345;52.334;10.392;2023-06-14T04:04:29;101095.52;;;19.46;48.05
61478;BME280;47345;52.334;10.392;2023-06-14T04:07:01;101096.75;;;19.73;47.46
61478;BME280;47345;52.334;10.392;2023-06-14T04:09:32;101094.88;;;19.97;46.76
61478;BME280;47345;52.334;10.392;2023-06-14T04:12:03;101098.53;;;20.19;46.39
61478;BME280;47345;52.334;10.392;2023-06-14T04:14:34;101098.77;;;20.40;45.72
61478;BME280;47345;52.334;10.392;2023-06-14T04:17:06;101097.70;;;20.53;45.29
61478;BME280;47345;52.334;10.392;2023-06-14T04:19:37;101098.35;;;20.66;45.84
61478;BME280;47345;52.334;10.392;2023-06-14T04:22:08;101102.05;;;20.83;45.40
61478;BME280;47345;52.334;10.392;2023-06-14T04:24:40;101092.91;;;21.05;44.96
61478;BME280;47345;52.334;10.392;2023-06-14T04:27:11;101095.46;;;21.27;44.65
61478;BME280;47345;52.334;10.392;2023-06-14T04:29:42;101095.85;;;21.49;44.39
61478;BME280;47345;52.334;10.392;2023-06-14T04:32:14;101099.27;;;21.68;43.79
61478;BME280;47345;52.334;10.392;2023-06-14T04:34:45;101098.69;;;21.82;43.41
61478;BME280;47345;52.334;10.392;2023-06-14T04:37:16;101101.84;;;21.92;43.00
61478;BME280;47345;52.334;10.392;2023-06-14T04:39:48;101099.51;;;22.01;42.96
61478;BME280;47345;52.334;10.392;2023-06-14T04:42:19;101104.75;;;22.01;42.74
61478;BME280;47345;52.334;10.392;2023-06-14T04:44:50;101102.63;;;21.99;42.44
61478;BME280;47345;52.334;10.392;2023-06-14T04:47:25;101107.31;;;22.01;42.49
61478;BME280;47345;52.334;10.392;2023-06-14T04:49:59;101105.98;;;22.05;42.57
61478;BME280;47345;52.334;10.392;2023-06-14T04:52:30;101102.64;;;22.05;42.58
61478;BME280;47345;52.334;10.392;2023-06-14T04:55:01;101105.30;;;22.02;43.05
61478;BME280;47345;52.334;10.392;2023-06-14T04:57:32;101103.73;;;22.01;42.87
61478;BME280;47345;52.334;10.392;2023-06-14T05:00:06;101109.48;;;22.00;42.45
61478;BME280;47345;52.334;10.392;2023-06-14T05:02:41;101104.22;;;21.90;42.67
61478;BME280;47345;52.334;10.392;2023-06-14T05:05:12;101103.09;;;21.84;43.34
61478;BME280;47345;52.334;10.392;2023-06-14T05:07:46;101108.27;;;21.85;43.67
61478;BME280;47345;52.334;10.392;2023-06-14T05:10:17;101110.14;;;21.72;43.32
61478;BME280;47345;52.334;10.392;2023-06-14T05:12:48;101116.45;;;21.43;43.74
61478;BME280;47345;52.334;10.392;2023-06-14T05:15:19;101121.02;;;21.01;44.89
61478;BME280;47345;52.334;10.392;2023-06-14T05:17:54;101122.86;;;20.57;45.63
61478;BME280;47345;52.334;10.392;2023-06-14T05:20:26;101127.90;;;20.12;46.28
61478;BME280;47345;52.334;10.392;2023-06-14T05:22:56;101125.84;;;19.77;47.42
61478;BME280;47345;52.334;10.392;2023-06-14T05:25:27;101127.34;;;19.53;47.98
61478;BME280;47345;52.334;10.392;2023-06-14T05:27:58;101133.86;;;19.38;48.55
61478;BME280;47345;52.334;10.392;2023-06-14T05:30:30;101140.09;;;19.23;49.07
61478;BME280;47345;52.334;10.392;2023-06-14T05:33:02;101140.16;;;19.08;49.26
61478;BME280;47345;52.334;10.392;2023-06-14T05:35:33;101139.70;;;18.93;49.78
61478;BME280;47345;52.334;10.392;2023-06-14T05:38:05;101146.55;;;18.82;49.99
61478;BME280;47345;52.334;10.392;2023-06-14T05:40:37;101147.03;;;18.74;50.51
61478;BME280;47345;52.334;10.392;2023-06-14T05:43:07;101143.98;;;18.63;50.98
61478;BME280;47345;52.334;10.392;2023-06-14T05:45:38;101150.25;;;18.53;50.94
61478;BME280;47345;52.334;10.392;2023-06-14T05:48:09;101145.09;;;18.46;51.32
61478;BME280;47345;52.334;10.392;2023-06-14T05:50:39;101142.44;;;18.43;51.65
61478;BME280;47345;52.334;10.392;2023-06-14T05:53:10;101137.94;;;18.42;51.86
61478;BME280;47345;52.334;10.392;2023-06-14T05:55:41;101137.55;;;18.50;52.39
61478;BME280;47345;52.334;10.392;2023-06-14T05:58:12;101135.04;;;18.55;52.09
61478;BME280;47345;52.334;10.392;2023-06-14T06:00:43;101139.36;;;18.55;52.07
61478;BME280;47345;52.334;10.392;2023-06-14T06:03:15;101138.73;;;18.60;52.35
61478;BME280;47345;52.334;10.392;2023-06-14T06:05:46;101143.85;;;18.67;52.10
61478;BME280;47345;52.334;10.392;2023-06-14T06:08:17;101144.30;;;18.70;52.38
61478;BME280;47345;52.334;10.392;2023-06-14T06:10:48;101146.52;;;18.76;52.44
61478;BME280;47345;52.334;10.392;2023-06-14T06:13:19;101142.30;;;18.79;51.83
61478;BME280;47345;52.334;10.392;2023-06-14T06:15:50;101145.94;;;18.82;51.39
61478;BME280;47345;52.334;10.392;2023-06-14T06:18:21;101144.63;;;18.83;51.49
61478;BME280;47345;52.334;10.392;2023-06-14T06:20:52;101146.85;;;18.90;51.52
61478;BME280;47345;52.334;10.392;2023-06-14T06:23:23;101151.14;;;18.96;51.64
61478;BME280;47345;52.334;10.392;2023-06-14T06:25:54;101152.81;;;19.01;51.67
61478;BME280;47345;52.334;10.392;2023-06-14T06:28:25;101154.53;;;19.13;51.71
61478;BME280;47345;52.334;10.392;2023-06-14T06:30:55;101159.85;;;19.24;51.31
61478;BME280;47345;52.334;10.392;2023-06-14T06:33:26;101164.86;;;19.29;50.56
61478;BME280;47345;52.334;10.392;2023-06-14T06:35:57;101164.41;;;19.29;50.30
61478;BME280;47345;52.334;10.392;2023-06-14T06:38:28;101166.12;;;19.28;50.15
61478;BME280;47345;52.334;10.392;2023-06-14T06:40:59;101172.70;;;19.30;50.12
61478;BME280;47345;52.334;10.392;2023-06-14T06:43:30;101175.96;;;19.30;50.82
61478;BME280;47345;52.334;10.392;2023-06-14T06:46:01;101177.55;;;19.29;50.61
61478;BME280;47345;52.334;10.392;2023-06-14T06:48:32;101181.89;;;19.30;50.44
61478;BME280;47345;52.334;10.392;2023-06-14T06:51:02;101176.05;;;19.37;50.39
61478;BME280;47345;52.334;10.392;2023-06-14T06:53:34;101175.02;;;19.45;50.29
61478;BME280;47345;52.334;10.392;2023-06-14T06:56:12;101178.95;;;19.58;50.26
61478;BME280;47345;52.334;10.392;2023-06-14T06:58:44;101180.23;;;19.72;50.40
61478;BME280;47345;52.334;10.392;2023-06-14T07:01:15;101183.49;;;19.89;49.76
61478;BME280;47345;52.334;10.392;2023-06-14T07:03:46;101185.65;;;19.96;48.85
61478;BME280;47345;52.334;10.392;2023-06-14T07:06:17;101189.05;;;20.02;48.89
61478;BME280;47345;52.334;10.392;2023-06-14T07:08:49;101186.58;;;20.02;48.23
61478;BME280;47345;52.334;10.392;2023-06-14T07:11:19;101195.23;;;20.02;48.16
61478;BME280;47345;52.334;10.392;2023-06-14T07:13:50;101194.69;;;20.04;47.83
61478;BME280;47345;52.334;10.392;2023-06-14T07:16:22;101192.38;;;20.06;47.47
61478;BME280;47345;52.334;10.392;2023-06-14T07:18:53;101196.36;;;20.09;47.46
61478;BME280;47345;52.334;10.392;2023-06-14T07:21:24;101199.71;;;20.18;47.26
61478;BME280;47345;52.334;10.392;2023-06-14T07:23:56;101199.36;;;20.26;46.90
61478;BME280;47345;52.334;10.392;2023-06-14T07:26:27;101199.97;;;20.31;46.77
61478;BME280;47345;52.334;10.392;2023-06-14T07:28:58;101195.67;;;20.35;46.73
61478;BME280;47345;52.334;10.392;2023-06-14T07:31:30;101199.79;;;20.46;46.59
61478;BME280;47345;52.334;10.392;2023-06-14T07:34:00;101201.64;;;20.54;45.96
61478;BME280;47345;52.334;10.392;2023-06-14T07:36:31;101196.91;;;20.58;45.81
61478;BME280;47345;52.334;10.392;2023-06-14T07:39:02;101196.52;;;20.64;45.92
61478;BME280;47345;52.334;10.392;2023-06-14T07:41:35;101193.75;;;20.74;45.63
61478;BME280;47345;52.334;10.392;2023-06-14T07:44:06;101195.52;;;20.82;45.45
61478;BME280;47345;52.334;10.392;2023-06-14T07:46:37;101196.43;;;20.85;44.80
61478;BME280;47345;52.334;10.392;2023-06-14T07:49:08;101192.56;;;20.87;44.82
61478;BME280;47345;52.334;10.392;2023-06-14T07:51:39;101189.93;;;20.85;44.44
61478;BME280;47345;52.334;10.392;2023-06-14T07:54:10;101188.27;;;20.87;44.55
61478;BME280;47345;52.334;10.392;2023-06-14T07:56:41;101186.02;;;20.98;44.68
61478;BME280;47345;52.334;10.392;2023-06-14T07:59:13;101182.06;;;21.03;44.04
61478;BME280;47345;52.334;10.392;2023-06-14T08:01:44;101185.19;;;21.13;44.21
61478;BME280;47345;52.334;10.392;2023-06-14T08:04:17;101187.09;;;21.23;44.10
61478;BME280;47345;52.334;10.392;2023-06-14T08:06:47;101191.44;;;21.26;43.36
61478;BME280;47345;52.334;10.392;2023-06-14T08:09:18;101190.17;;;21.30;43.42
61478;BME280;47345;52.334;10.392;2023-06-14T08:11:49;101190.73;;;21.38;42.77
61478;BME280;47345;52.334;10.392;2023-06-14T08:14:20;101183.74;;;21.42;42.33
61478;BME280;47345;52.334;10.392;2023-06-14T08:16:51;101181.41;;;21.44;43.15
61478;BME280;47345;52.334;10.392;2023-06-14T08:19:23;101187.36;;;21.54;42.77
61478;BME280;47345;52.334;10.392;2023-06-14T08:21:54;101187.69;;;21.61;42.97
61478;BME280;47345;52.334;10.392;2023-06-14T08:24:25;101188.14;;;21.70;43.31
61478;BME280;47345;52.334;10.392;2023-06-14T08:26:57;101188.27;;;21.87;43.09
61478;BME280;47345;52.334;10.392;2023-06-14T08:29:30;101184.57;;;21.99;43.08
61478;BME280;47345;52.334;10.392;2023-06-14T08:32:00;101187.28;;;22.12;42.83
61478;BME280;47345;52.334;10.392;2023-06-14T08:34:31;101188.08;;;22.22;43.18
61478;BME280;47345;52.334;10.392;2023-06-14T08:37:02;101187.36;;;22.25;43.03
61478;BME280;47345;52.334;10.392;2023-06-14T08:39:33;101185.30;;;22.24;42.91
61478;BME280;47345;52.334;10.392;2023-06-14T08:42:06;101186.30;;;22.21;42.80
61478;BME280;47345;52.334;10.392;2023-06-14T08:44:52;101190.55;;;22.31;42.06
61478;BME280;47345;52.334;10.392;2023-06-14T08:47:24;101189.32;;;22.33;41.74
61478;BME280;47345;52.334;10.392;2023-06-14T08:50:00;101188.45;;;22.37;42.00
61478;BME280;47345;52.334;10.392;2023-06-14T08:52:39;101176.16;;;22.51;42.09
61478;BME280;47345;52.334;10.392;2023-06-14T08:55:20;101178.41;;;22.66;41.49
61478;BME280;47345;52.334;10.392;2023-06-14T08:57:56;101176.50;;;22.81;41.91
61478;BME280;47345;52.334;10.392;2023-06-14T09:00:28;101183.74;;;22.97;40.98
61478;BME280;47345;52.334;10.392;2023-06-14T09:03:00;101180.79;;;23.01;40.57
61478;BME280;47345;52.334;10.392;2023-06-14T09:05:32;101184.80;;;22.99;41.07
61478;BME280;47345;52.334;10.392;2023-06-14T09:08:03;101188.60;;;22.95;41.03
61478;BME280;47345;52.334;10.392;2023-06-14T09:10:35;101185.08;;;22.93;41.26
61478;BME280;47345;52.334;10.392;2023-06-14T09:13:08;101184.35;;;23.05;41.53
61478;BME280;47345;52.334;10.392;2023-06-14T09:15:39;101192.75;;;23.21;40.94
61478;BME280;47345;52.334;10.392;2023-06-14T09:18:10;101189.55;;;23.38;39.81
61478;BME280;47345;52.334;10.392;2023-06-14T09:20:41;101188.27;;;23.43;39.67
61478;BME280;47345;52.334;10.392;2023-06-14T09:23:13;101185.05;;;23.52;39.92
61478;BME280;47345;52.334;10.392;2023-06-14T09:25:45;101185.62;;;23.61;39.95
61478;BME280;47345;52.334;10.392;2023-06-14T09:28:16;101189.54;;;23.78;39.78
61478;BME280;47345;52.334;10.392;2023-06-14T09:30:47;101187.17;;;23.87;39.32
61478;BME280;47345;52.334;10.392;2023-06-14T09:33:19;101186.42;;;23.95;39.32
61478;BME280;47345;52.334;10.392;2023-06-14T09:35:53;101187.58;;;24.03;39.20
61478;BME280;47345;52.334;10.392;2023-06-14T09:38:26;101190.22;;;24.11;38.33
61478;BME280;47345;52.334;10.392;2023-06-14T09:40:59;101186.64;;;24.13;38.62
61478;BME280;47345;52.334;10.392;2023-06-14T09:43:30;101191.44;;;24.24;38.48
61478;BME280;47345;52.334;10.392;2023-06-14T09:46:05;101184.09;;;24.37;37.83
61478;BME280;47345;52.334;10.392;2023-06-14T09:48:37;101185.83;;;24.43;37.66
61478;BME280;47345;52.334;10.392;2023-06-14T09:51:14;101182.68;;;24.51;37.52
61478;BME280;47345;52.334;10.392;2023-06-14T09:53:48;101188.30;;;24.63;37.29
61478;BME280;47345;52.334;10.392;2023-06-14T09:56:23;101180.58;;;24.58;36.73
61478;BME280;47345;52.334;10.392;2023-06-14T09:58:57;101176.59;;;24.44;36.88
61478;BME280;47345;52.334;10.392;2023-06-14T10:01:41;101173.88;;;24.47;38.25
61478;BME280;47345;52.334;10.392;2023-06-14T10:04:14;101177.02;;;24.70;38.10
61478;BME280;47345;52.334;10.392;2023-06-14T10:06:46;101173.77;;;25.01;37.07
61478;BME280;47345;52.334;10.392;2023-06-14T10:09:17;101179.46;;;25.26;36.13
61478;BME280;47345;52.334;10.392;2023-06-14T10:11:48;101172.26;;;25.14;35.47
61478;BME280;47345;52.334;10.392;2023-06-14T10:14:19;101168.55;;;25.15;36.29
61478;BME280;47345;52.334;10.392;2023-06-14T10:16:55;101169.92;;;25.17;36.03
61478;BME280;47345;52.334;10.392;2023-06-14T10:19:32;101174.61;;;25.14;35.31
61478;BME280;47345;52.334;10.392;2023-06-14T10:22:08;101166.71;;;25.03;35.43
61478;BME280;47345;52.334;10.392;2023-06-14T10:24:43;101168.33;;;25.03;36.13
61478;BME280;47345;52.334;10.392;2023-06-14T10:27:15;101167.91;;;25.17;35.33
61478;BME280;47345;52.334;10.392;2023-06-14T10:30:06;101168.61;;;25.29;36.13
61478;BME280;47345;52.334;10.392;2023-06-14T10:33:06;101165.05;;;25.54;35.80
61478;BME280;47345;52.334;10.392;2023-06-14T10:35:39;101155.36;;;25.81;35.45
61478;BME280;47345;52.334;10.392;2023-06-14T10:38:11;101147.42;;;26.27;34.93
61478;BME280;47345;52.334;10.392;2023-06-14T10:40:42;101148.16;;;26.59;34.47
61478;BME280;47345;52.334;10.392;2023-06-14T10:43:25;101145.27;;;26.85;33.85
61478;BME280;47345;52.334;10.392;2023-06-14T10:46:16;101143.47;;;27.15;33.74
61478;BME280;47345;52.334;10.392;2023-06-14T10:48:48;101140.23;;;27.52;33.17
61478;BME280;47345;52.334;10.392;2023-06-14T10:51:22;101139.94;;;27.63;32.59
61478;BME280;47345;52.334;10.392;2023-06-14T10:53:52;101138.27;;;27.57;32.34
61478;BME280;47345;52.334;10.392;2023-06-14T10:56:30;101136.96;;;27.50;32.81
61478;BME280;47345;52.334;10.392;2023-06-14T10:59:01;101134.71;;;27.55;32.88
61478;BME280;47345;52.334;10.392;2023-06-14T11:01:38;101134.54;;;27.38;32.89
61478;BME280;47345;52.334;10.392;2023-06-14T11:04:12;101137.91;;;27.09;32.80
61478;BME280;47345;52.334;10.392;2023-06-14T11:06:50;101131.25;;;26.87;33.43
61478;BME280;47345;52.334;10.392;2023-06-14T11:12:33;101135.60;;;26.46;34.53
61478;BME280;47345;52.334;10.392;2023-06-14T11:15:07;101133.61;;;26.29;34.80
61478;BME280;47345;52.334;10.392;2023-06-14T11:17:38;101128.74;;;26.17;35.02
61478;BME280;47345;52.334;10.392;2023-06-14T11:20:13;101131.09;;;26.13;35.32
61478;BME280;47345;52.334;10.392;2023-06-14T11:22:49;101132.71;;;26.05;36.36
61478;BME280;47345;52.334;10.392;2023-06-14T11:25:20;101123.09;;;25.88;37.27
61478;BME280;47345;52.334;10.392;2023-06-14T11:27:52;101126.28;;;25.93;36.95
61478;BME280;47345;52.334;10.392;2023-06-14T11:30:23;101121.77;;;26.26;35.67
61478;BME280;47345;52.334;10.392;2023-06-14T11:32:55;101119.61;;;26.57;34.58
61478;BME280;47345;52.334;10.392;2023-06-14T11:35:27;101117.48;;;26.54;34.20
61478;BME280;47345;52.334;10.392;2023-06-14T11:37:58;101118.54;;;26.36;34.30
61478;BME280;47345;52.334;10.392;2023-06-14T11:40:30;101121.34;;;26.32;34.57
61478;BME280;47345;52.334;10.392;2023-06-14T11:43:01;101117.23;;;26.29;34.30
61478;BME280;47345;52.334;10.392;2023-06-14T11:45:33;101118.09;;;26.28;34.08
61478;BME280;47345;52.334;10.392;2023-06-14T11:48:05;101120.71;;;26.26;34.20
61478;BME280;47345;52.334;10.392;2023-06-14T11:50:39;101120.96;;;26.34;34.28
61478;BME280;47345;52.334;10.392;2023-06-14T11:53:10;101115.52;;;26.42;34.53
61478;BME280;47345;52.334;10.392;2023-06-14T11:55:41;101114.88;;;26.56;34.37
61478;BME280;47345;52.334;10.392;2023-06-14T11:58:15;101113.70;;;26.65;34.28
61478;BME280;47345;52.334;10.392;2023-06-14T12:00:50;101111.80;;;26.71;34.20
61478;BME280;47345;52.334;10.392;2023-06-14T12:03:24;101103.83;;;27.09;34.47
61478;BME280;47345;52.334;10.392;2023-06-14T12:06:09;101099.83;;;27.52;34.43
61478;BME280;47345;52.334;10.392;2023-06-14T12:08:42;101104.38;;;27.54;32.83
61478;BME280;47345;52.334;10.392;2023-06-14T12:11:14;101109.88;;;27.15;33.24
61478;BME280;47345;52.334;10.392;2023-06-14T12:13:46;101108.73;;;26.84;33.86
61478;BME280;47345;52.334;10.392;2023-06-14T12:16:19;101106.21;;;26.64;34.17
61478;BME280;47345;52.334;10.392;2023-06-14T12:18:49;101110.64;;;26.48;34.53
61478;BME280;47345;52.334;10.392;2023-06-14T12:21:24;101109.67;;;26.39;34.85
61478;BME280;47345;52.334;10.392;2023-06-14T12:23:55;101104.52;;;26.71;35.17
61478;BME280;47345;52.334;10.392;2023-06-14T12:26:26;101107.46;;;26.92;33.77
61478;BME280;47345;52.334;10.392;2023-06-14T12:28:58;101095.89;;;26.80;34.23
61478;BME280;47345;52.334;10.392;2023-06-14T12:31:29;101095.04;;;26.63;34.60
61478;BME280;47345;52.334;10.392;2023-06-14T12:33:59;101091.02;;;26.67;34.76
61478;BME280;47345;52.334;10.392;2023-06-14T12:36:31;101088.27;;;26.69;34.22
61478;BME280;47345;52.334;10.392;2023-06-14T12:39:03;101090.34;;;26.73;33.55
61478;BME280;47345;52.334;10.392;2023-06-14T12:41:35;101089.67;;;26.66;32.91
61478;BME280;47345;52.334;10.392;2023-06-14T12:44:07;101091.59;;;26.57;33.47
61478;BME280;47345;52.334;10.392;2023-06-14T12:46:38;101093.53;;;26.45;33.47
61478;BME280;47345;52.334;10.392;2023-06-14T12:49:11;101100.27;;;26.19;33.44
61478;BME280;47345;52.334;10.392;2023-06-14T12:51:42;101097.94;;;25.93;34.00
61478;BME280;47345;52.334;10.392;2023-06-14T12:54:13;101101.02;;;25.77;34.23
61478;BME280;47345;52.334;10.392;2023-06-14T12:56:57;101098.96;;;25.66;34.27
61478;BME280;47345;52.334;10.392;2023-06-14T12:59:27;101097.73;;;25.62;34.67
61478;BME280;47345;52.334;10.392;2023-06-14T13:02:12;101092.61;;;25.68;34.50
61478;BME280;47345;52.334;10.392;2023-06-14T13:04:43;101093.73;;;25.81;34.32
61478;BME280;47345;52.334;10.392;2023-06-14T13:07:15;101092.63;;;25.98;34.50
61478;BME280;47345;52.334;10.392;2023-06-14T13:09:46;101088.27;;;26.11;34.29